sensor_id;sensor_type;location;lat;lon;timestamp;P1;durP1;ratioP1;P2;durP2;ratioP2
27265;SDS011;14766;51.380;13.762;2023-04-24T00:02:14;3.05;;;2.35;;
27265;SDS011;14766;51.380;13.762;2023-04-24T00:04:42;3.58;;;2.47;;
27265;SDS011;14766;51.380;13.762;2023-04-24T00:07:13;3.35;;;2.67;;
27265;SDS011;14766;51.380;13.762;2023-04-24T00:09:41;3.45;;;2.45;;
27265;SDS011;14766;51.380;13.762;2023-04-24T00:12:10;2.92;;;2.45;;
27265;SDS011;14766;51.380;13.762;2023-04-24T00:14:37;5.00;;;2.85;;
27265;SDS011;14766;51.380;13.762;2023-04-24T00:17:04;4.13;;;2.65;;
27265;SDS011;14766;51.380;13.762;2023-04-24T00:19:32;5.53;;;3.00;;
27265;SDS011;14766;51.380;13.762;2023-04-24T00:22:01;3.95;;;2.67;;
27265;SDS011;14766;51.380;13.762;2023-04-24T00:24:30;3.85;;;2.78;;
27265;SDS011;14766;51.380;13.762;2023-04-24T00:26:57;4.57;;;2.70;;
27265;SDS011;14766;51.380;13.762;2023-04-24T00:29:28;3.92;;;2.50;;
27265;SDS011;14766;51.380;13.762;2023-04-24T00:31:55;3.42;;;2.50;;
27265;SDS011;14766;51.380;13.762;2023-04-24T00:34:22;2.95;;;2.50;;
27265;SDS011;14766;51.380;13.762;2023-04-24T00:36:51;4.30;;;2.60;;
27265;SDS011;14766;51.380;13.762;2023-04-24T00:39:19;3.50;;;2.88;;
27265;SDS011;14766;51.380;13.762;2023-04-24T00:41:46;4.32;;;3.25;;
27265;SDS011;14766;51.380;13.762;2023-04-24T00:44:14;3.58;;;3.00;;
27265;SDS011;14766;51.380;13.762;2023-04-24T00:46:42;3.83;;;2.80;;
27265;SDS011;14766;51.380;13.762;2023-04-24T00:49:09;3.47;;;3.00;;
27265;SDS011;14766;51.380;13.762;2023-04-24T00:51:41;3.20;;;2.88;;
27265;SDS011;14766;51.380;13.762;2023-04-24T00:54:12;4.57;;;2.72;;
27265;SDS011;14766;51.380;13.762;2023-04-24T00:56:40;5.60;;;3.17;;
27265;SDS011;14766;51.380;13.762;2023-04-24T00:59:09;4.35;;;2.88;;
27265;SDS011;14766;51.380;13.762;2023-04-24T01:01:37;3.88;;;2.70;;
27265;SDS011;14766;51.380;13.762;2023-04-24T01:04:11;3.80;;;2.90;;
27265;SDS011;14766;51.380;13.762;2023-04-24T01:06:40;4.03;;;3.05;;
27265;SDS011;14766;51.380;13.762;2023-04-24T01:09:10;3.17;;;2.80;;
27265;SDS011;14766;51.380;13.762;2023-04-24T01:11:38;3.63;;;2.80;;
27265;SDS011;14766;51.380;13.762;2023-04-24T01:14:10;3.58;;;3.00;;
27265;SDS011;14766;51.380;13.762;2023-04-24T01:16:38;4.22;;;3.15;;
27265;SDS011;14766;51.380;13.762;2023-04-24T01:19:06;3.67;;;3.05;;
27265;SDS011;14766;51.380;13.762;2023-04-24T01:21:36;4.30;;;3.08;;
27265;SDS011;14766;51.380;13.762;2023-04-24T01:24:04;5.07;;;3.55;;
27265;SDS011;14766;51.380;13.762;2023-04-24T01:26:32;5.28;;;2.90;;
27265;SDS011;14766;51.380;13.762;2023-04-24T01:28:59;3.25;;;2.95;;
27265;SDS011;14766;51.380;13.762;2023-04-24T01:31:27;3.83;;;3.00;;
27265;SDS011;14766;51.380;13.762;2023-04-24T01:33:55;4.88;;;3.33;;
27265;SDS011;14766;51.380;13.762;2023-04-24T01:36:23;3.13;;;2.60;;
27265;SDS011;14766;51.380;13.762;2023-04-24T01:38:52;3.35;;;3.00;;
27265;SDS011;14766;51.380;13.762;2023-04-24T01:41:19;5.63;;;2.97;;
27265;SDS011;14766;51.380;13.762;2023-04-24T01:43:46;3.92;;;2.90;;
27265;SDS011;14766;51.380;13.762;2023-04-24T01:46:15;3.78;;;2.88;;
27265;SDS011;14766;51.380;13.762;2023-04-24T01:48:42;4.35;;;3.10;;
27265;SDS011;14766;51.380;13.762;2023-04-24T01:51:11;4.05;;;2.92;;
27265;SDS011;14766;51.380;13.762;2023-04-24T01:53:39;3.53;;;2.83;;
27265;SDS011;14766;51.380;13.762;2023-04-24T01:56:08;3.13;;;2.50;;
27265;SDS011;14766;51.380;13.762;2023-04-24T01:58:35;2.95;;;2.63;;
27265;SDS011;14766;51.380;13.762;2023-04-24T02:01:02;4.22;;;3.00;;
27265;SDS011;14766;51.380;13.762;2023-04-24T02:03:30;5.40;;;3.28;;
27265;SDS011;14766;51.380;13.762;2023-04-24T02:05:57;3.42;;;2.92;;
27265;SDS011;14766;51.380;13.762;2023-04-24T02:08:24;2.70;;;2.35;;
27265;SDS011;14766;51.380;13.762;2023-04-24T02:10:51;4.20;;;2.83;;
27265;SDS011;14766;51.380;13.762;2023-04-24T02:13:18;5.22;;;3.08;;
27265;SDS011;14766;51.380;13.762;2023-04-24T02:15:45;3.00;;;2.70;;
27265;SDS011;14766;51.380;13.762;2023-04-24T02:18:15;4.30;;;3.05;;
27265;SDS011;14766;51.380;13.762;2023-04-24T02:20:43;4.07;;;3.05;;
27265;SDS011;14766;51.380;13.762;2023-04-24T02:23:10;3.15;;;2.60;;
27265;SDS011;14766;51.380;13.762;2023-04-24T02:25:37;3.20;;;2.78;;
27265;SDS011;14766;51.380;13.762;2023-04-24T02:28:05;3.05;;;2.58;;
27265;SDS011;14766;51.380;13.762;2023-04-24T02:30:33;3.90;;;2.50;;
27265;SDS011;14766;51.380;13.762;2023-04-24T02:33:00;3.80;;;3.03;;
27265;SDS011;14766;51.380;13.762;2023-04-24T02:35:29;3.08;;;2.78;;
27265;SDS011;14766;51.380;13.762;2023-04-24T02:37:56;4.57;;;2.83;;
27265;SDS011;14766;51.380;13.762;2023-04-24T02:40:26;3.60;;;2.97;;
27265;SDS011;14766;51.380;13.762;2023-04-24T02:42:53;3.22;;;2.58;;
27265;SDS011;14766;51.380;13.762;2023-04-24T02:45:20;3.70;;;2.90;;
27265;SDS011;14766;51.380;13.762;2023-04-24T02:47:47;2.75;;;2.45;;
27265;SDS011;14766;51.380;13.762;2023-04-24T02:50:14;3.55;;;2.80;;
27265;SDS011;14766;51.380;13.762;2023-04-24T02:52:41;3.92;;;2.90;;
27265;SDS011;14766;51.380;13.762;2023-04-24T02:55:08;2.83;;;2.47;;
27265;SDS011;14766;51.380;13.762;2023-04-24T02:57:36;3.40;;;2.80;;
27265;SDS011;14766;51.380;13.762;2023-04-24T03:00:05;4.00;;;2.42;;
27265;SDS011;14766;51.380;13.762;2023-04-24T03:02:33;3.35;;;2.28;;
27265;SDS011;14766;51.380;13.762;2023-04-24T03:05:01;2.38;;;2.17;;
27265;SDS011;14766;51.380;13.762;2023-04-24T03:07:28;3.13;;;2.55;;
27265;SDS011;14766;51.380;13.762;2023-04-24T03:09:58;2.88;;;2.40;;
27265;SDS011;14766;51.380;13.762;2023-04-24T03:12:25;3.03;;;2.42;;
27265;SDS011;14766;51.380;13.762;2023-04-24T03:14:52;3.38;;;2.50;;
27265;SDS011;14766;51.380;13.762;2023-04-24T03:17:19;2.58;;;2.08;;
27265;SDS011;14766;51.380;13.762;2023-04-24T03:19:47;3.38;;;2.17;;
27265;SDS011;14766;51.380;13.762;2023-04-24T03:22:14;2.70;;;2.20;;
27265;SDS011;14766;51.380;13.762;2023-04-24T03:24:43;2.97;;;2.25;;
27265;SDS011;14766;51.380;13.762;2023-04-24T03:27:11;2.08;;;1.95;;
27265;SDS011;14766;51.380;13.762;2023-04-24T03:29:48;2.42;;;2.17;;
27265;SDS011;14766;51.380;13.762;2023-04-24T03:32:21;3.40;;;2.10;;
27265;SDS011;14766;51.380;13.762;2023-04-24T03:34:50;2.03;;;1.58;;
27265;SDS011;14766;51.380;13.762;2023-04-24T03:37:19;1.95;;;1.52;;
27265;SDS011;14766;51.380;13.762;2023-04-24T03:40:02;2.42;;;1.40;;
27265;SDS011;14766;51.380;13.762;2023-04-24T03:42:29;3.17;;;1.45;;
27265;SDS011;14766;51.380;13.762;2023-04-24T03:44:59;3.10;;;1.40;;
27265;SDS011;14766;51.380;13.762;2023-04-24T03:47:32;1.30;;;1.10;;
27265;SDS011;14766;51.380;13.762;2023-04-24T03:50:02;1.40;;;1.30;;
27265;SDS011;14766;51.380;13.762;2023-04-24T03:52:30;1.30;;;1.20;;
27265;SDS011;14766;51.380;13.762;2023-04-24T03:54:57;1.13;;;1.00;;
27265;SDS011;14766;51.380;13.762;2023-04-24T03:57:27;1.63;;;1.23;;
27265;SDS011;14766;51.380;13.762;2023-04-24T04:00:06;1.38;;;1.13;;
27265;SDS011;14766;51.380;13.762;2023-04-24T04:02:40;1.35;;;0.95;;
27265;SDS011;14766;51.380;13.762;2023-04-24T04:05:08;1.75;;;1.25;;
27265;SDS011;14766;51.380;13.762;2023-04-24T04:07:38;1.73;;;1.20;;
27265;SDS011;14766;51.380;13.762;2023-04-24T04:10:06;2.33;;;1.27;;
27265;SDS011;14766;51.380;13.762;2023-04-24T04:12:36;1.30;;;1.02;;
27265;SDS011;14766;51.380;13.762;2023-04-24T04:15:03;2.58;;;1.23;;
27265;SDS011;14766;51.380;13.762;2023-04-24T04:17:33;1.30;;;1.00;;
27265;SDS011;14766;51.380;13.762;2023-04-24T04:20:04;1.50;;;1.20;;
27265;SDS011;14766;51.380;13.762;2023-04-24T04:22:41;1.30;;;1.00;;
27265;SDS011;14766;51.380;13.762;2023-04-24T04:25:15;1.88;;;1.20;;
27265;SDS011;14766;51.380;13.762;2023-04-24T04:27:46;2.13;;;1.13;;
27265;SDS011;14766;51.380;13.762;2023-04-24T04:30:15;1.40;;;1.10;;
27265;SDS011;14766;51.380;13.762;2023-04-24T04:32:51;2.38;;;1.40;;
27265;SDS011;14766;51.380;13.762;2023-04-24T04:35:18;1.27;;;1.00;;
27265;SDS011;14766;51.380;13.762;2023-04-24T04:37:50;1.25;;;1.05;;
27265;SDS011;14766;51.380;13.762;2023-04-24T04:40:20;1.23;;;1.13;;
27265;SDS011;14766;51.380;13.762;2023-04-24T04:42:56;1.45;;;1.10;;
27265;SDS011;14766;51.380;13.762;2023-04-24T04:45:30;2.72;;;1.17;;
27265;SDS011;14766;51.380;13.762;2023-04-24T04:48:29;4.65;;;2.55;;
27265;SDS011;14766;51.380;13.762;2023-04-24T04:50:59;2.65;;;1.90;;
27265;SDS011;14766;51.380;13.762;2023-04-24T04:53:28;2.15;;;1.75;;
27265;SDS011;14766;51.380;13.762;2023-04-24T04:55:55;3.47;;;2.33;;
27265;SDS011;14766;51.380;13.762;2023-04-24T04:58:28;1.50;;;1.40;;
27265;SDS011;14766;51.380;13.762;2023-04-24T05:00:58;2.55;;;1.35;;
27265;SDS011;14766;51.380;13.762;2023-04-24T05:03:39;1.90;;;1.65;;
27265;SDS011;14766;51.380;13.762;2023-04-24T05:06:09;1.23;;;1.13;;
27265;SDS011;14766;51.380;13.762;2023-04-24T05:08:38;1.80;;;1.65;;
27265;SDS011;14766;51.380;13.762;2023-04-24T05:11:08;1.45;;;1.30;;
27265;SDS011;14766;51.380;13.762;2023-04-24T05:13:37;2.88;;;1.30;;
27265;SDS011;14766;51.380;13.762;2023-04-24T05:16:17;2.13;;;1.38;;
27265;SDS011;14766;51.380;13.762;2023-04-24T05:18:49;2.90;;;1.10;;
27265;SDS011;14766;51.380;13.762;2023-04-24T05:21:20;1.10;;;1.00;;
27265;SDS011;14766;51.380;13.762;2023-04-24T05:23:50;1.13;;;1.02;;
27265;SDS011;14766;51.380;13.762;2023-04-24T05:26:45;1.88;;;1.40;;
27265;SDS011;14766;51.380;13.762;2023-04-24T05:29:18;1.10;;;1.00;;
27265;SDS011;14766;51.380;13.762;2023-04-24T05:31:46;1.55;;;1.05;;
27265;SDS011;14766;51.380;13.762;2023-04-24T05:34:13;0.98;;;0.95;;
27265;SDS011;14766;51.380;13.762;2023-04-24T05:36:44;2.20;;;1.00;;
27265;SDS011;14766;51.380;13.762;2023-04-24T05:39:11;1.40;;;1.10;;
27265;SDS011;14766;51.380;13.762;2023-04-24T05:41:38;0.98;;;0.77;;
27265;SDS011;14766;51.380;13.762;2023-04-24T05:44:05;1.05;;;0.95;;
27265;SDS011;14766;51.380;13.762;2023-04-24T05:46:35;1.73;;;1.20;;
27265;SDS011;14766;51.380;13.762;2023-04-24T05:49:03;1.63;;;1.08;;
27265;SDS011;14766;51.380;13.762;2023-04-24T05:51:32;2.15;;;1.00;;
27265;SDS011;14766;51.380;13.762;2023-04-24T05:53:59;1.10;;;1.00;;
27265;SDS011;14766;51.380;13.762;2023-04-24T05:56:27;1.92;;;1.00;;
27265;SDS011;14766;51.380;13.762;2023-04-24T05:58:55;1.13;;;1.02;;
27265;SDS011;14766;51.380;13.762;2023-04-24T06:01:23;1.30;;;1.00;;
27265;SDS011;14766;51.380;13.762;2023-04-24T06:04:02;1.50;;;1.25;;
27265;SDS011;14766;51.380;13.762;2023-04-24T06:06:30;2.05;;;1.10;;
27265;SDS011;14766;51.380;13.762;2023-04-24T06:08:59;1.67;;;1.10;;
27265;SDS011;14766;51.380;13.762;2023-04-24T06:11:27;3.38;;;1.30;;
27265;SDS011;14766;51.380;13.762;2023-04-24T06:13:55;1.23;;;1.13;;
27265;SDS011;14766;51.380;13.762;2023-04-24T06:16:57;2.40;;;1.40;;
27265;SDS011;14766;51.380;13.762;2023-04-24T06:19:34;2.28;;;1.30;;
27265;SDS011;14766;51.380;13.762;2023-04-24T06:22:01;1.38;;;1.25;;
27265;SDS011;14766;51.380;13.762;2023-04-24T06:24:28;1.40;;;1.00;;
27265;SDS011;14766;51.380;13.762;2023-04-24T06:26:57;1.25;;;1.00;;
27265;SDS011;14766;51.380;13.762;2023-04-24T06:29:29;1.73;;;1.00;;
27265;SDS011;14766;51.380;13.762;2023-04-24T06:31:56;1.70;;;1.27;;
27265;SDS011;14766;51.380;13.762;2023-04-24T06:34:23;1.85;;;1.15;;
27265;SDS011;14766;51.380;13.762;2023-04-24T06:36:50;3.42;;;2.00;;
27265;SDS011;14766;51.380;13.762;2023-04-24T06:39:18;2.33;;;1.42;;
27265;SDS011;14766;51.380;13.762;2023-04-24T06:41:46;3.50;;;1.75;;
27265;SDS011;14766;51.380;13.762;2023-04-24T06:44:19;3.50;;;1.45;;
27265;SDS011;14766;51.380;13.762;2023-04-24T06:46:47;1.80;;;1.05;;
27265;SDS011;14766;51.380;13.762;2023-04-24T06:49:15;1.67;;;1.20;;
27265;SDS011;14766;51.380;13.762;2023-04-24T06:51:45;1.73;;;1.00;;
27265;SDS011;14766;51.380;13.762;2023-04-24T06:54:12;2.33;;;1.10;;
27265;SDS011;14766;51.380;13.762;2023-04-24T06:56:39;1.48;;;1.13;;
27265;SDS011;14766;51.380;13.762;2023-04-24T06:59:06;1.13;;;1.00;;
27265;SDS011;14766;51.380;13.762;2023-04-24T07:01:33;2.85;;;0.90;;
27265;SDS011;14766;51.380;13.762;2023-04-24T07:04:01;3.20;;;1.33;;
27265;SDS011;14766;51.380;13.762;2023-04-24T07:06:28;1.20;;;1.10;;
27265;SDS011;14766;51.380;13.762;2023-04-24T07:08:58;3.70;;;1.30;;
27265;SDS011;14766;51.380;13.762;2023-04-24T07:11:26;2.08;;;1.30;;
27265;SDS011;14766;51.380;13.762;2023-04-24T07:13:55;1.63;;;1.00;;
27265;SDS011;14766;51.380;13.762;2023-04-24T07:16:22;1.17;;;0.93;;
27265;SDS011;14766;51.380;13.762;2023-04-24T07:18:49;1.55;;;0.90;;
27265;SDS011;14766;51.380;13.762;2023-04-24T07:21:17;1.17;;;0.80;;
27265;SDS011;14766;51.380;13.762;2023-04-24T07:23:44;1.52;;;1.02;;
27265;SDS011;14766;51.380;13.762;2023-04-24T07:26:12;1.17;;;1.08;;
27265;SDS011;14766;51.380;13.762;2023-04-24T07:28:42;1.98;;;0.98;;
27265;SDS011;14766;51.380;13.762;2023-04-24T07:31:10;1.02;;;0.75;;
27265;SDS011;14766;51.380;13.762;2023-04-24T07:33:38;1.67;;;0.90;;
27265;SDS011;14766;51.380;13.762;2023-04-24T07:36:06;2.70;;;0.98;;
27265;SDS011;14766;51.380;13.762;2023-04-24T07:38:33;1.00;;;0.80;;
27265;SDS011;14766;51.380;13.762;2023-04-24T07:41:01;1.60;;;1.00;;
27265;SDS011;14766;51.380;13.762;2023-04-24T07:43:28;1.27;;;0.80;;
27265;SDS011;14766;51.380;13.762;2023-04-24T07:45:55;0.90;;;0.70;;
27265;SDS011;14766;51.380;13.762;2023-04-24T07:48:22;0.95;;;0.80;;
27265;SDS011;14766;51.380;13.762;2023-04-24T07:50:52;2.70;;;0.82;;
27265;SDS011;14766;51.380;13.762;2023-04-24T07:53:19;0.77;;;0.70;;
27265;SDS011;14766;51.380;13.762;2023-04-24T07:55:47;2.22;;;1.00;;
27265;SDS011;14766;51.380;13.762;2023-04-24T07:58:17;0.85;;;0.70;;
27265;SDS011;14766;51.380;13.762;2023-04-24T08:00:45;1.15;;;0.90;;
27265;SDS011;14766;51.380;13.762;2023-04-24T08:03:12;3.45;;;1.23;;
27265;SDS011;14766;51.380;13.762;2023-04-24T08:05:40;1.38;;;0.80;;
27265;SDS011;14766;51.380;13.762;2023-04-24T08:08:08;1.83;;;1.05;;
27265;SDS011;14766;51.380;13.762;2023-04-24T08:10:35;1.63;;;0.70;;
27265;SDS011;14766;51.380;13.762;2023-04-24T08:13:02;1.48;;;0.65;;
27265;SDS011;14766;51.380;13.762;2023-04-24T08:15:30;2.20;;;0.82;;
27265;SDS011;14766;51.380;13.762;2023-04-24T08:17:57;1.52;;;0.70;;
27265;SDS011;14766;51.380;13.762;2023-04-24T08:20:24;1.80;;;1.00;;
27265;SDS011;14766;51.380;13.762;2023-04-24T08:22:51;0.77;;;0.60;;
27265;SDS011;14766;51.380;13.762;2023-04-24T08:25:18;1.92;;;0.70;;
27265;SDS011;14766;51.380;13.762;2023-04-24T08:27:46;3.15;;;1.05;;
27265;SDS011;14766;51.380;13.762;2023-04-24T08:30:14;1.10;;;0.60;;
27265;SDS011;14766;51.380;13.762;2023-04-24T08:32:41;0.98;;;0.70;;
27265;SDS011;14766;51.380;13.762;2023-04-24T08:35:08;1.75;;;0.63;;
27265;SDS011;14766;51.380;13.762;2023-04-24T08:37:36;1.38;;;0.52;;
27265;SDS011;14766;51.380;13.762;2023-04-24T08:40:06;2.05;;;0.73;;
27265;SDS011;14766;51.380;13.762;2023-04-24T08:42:41;1.15;;;0.88;;
27265;SDS011;14766;51.380;13.762;2023-04-24T08:45:11;1.38;;;0.70;;
27265;SDS011;14766;51.380;13.762;2023-04-24T08:47:39;1.10;;;0.80;;
27265;SDS011;14766;51.380;13.762;2023-04-24T08:50:08;2.45;;;0.70;;
27265;SDS011;14766;51.380;13.762;2023-04-24T08:52:36;0.95;;;0.70;;
27265;SDS011;14766;51.380;13.762;2023-04-24T08:55:03;1.52;;;0.80;;
27265;SDS011;14766;51.380;13.762;2023-04-24T08:57:31;2.08;;;0.73;;
27265;SDS011;14766;51.380;13.762;2023-04-24T09:00:00;2.53;;;0.98;;
27265;SDS011;14766;51.380;13.762;2023-04-24T09:02:27;2.00;;;0.93;;
27265;SDS011;14766;51.380;13.762;2023-04-24T09:04:56;2.50;;;1.05;;
27265;SDS011;14766;51.380;13.762;2023-04-24T09:07:24;2.17;;;0.75;;
27265;SDS011;14766;51.380;13.762;2023-04-24T09:09:54;1.33;;;0.77;;
27265;SDS011;14766;51.380;13.762;2023-04-24T09:12:22;1.67;;;0.80;;
27265;SDS011;14766;51.380;13.762;2023-04-24T09:14:51;2.55;;;0.85;;
27265;SDS011;14766;51.380;13.762;2023-04-24T09:17:19;2.33;;;0.80;;
27265;SDS011;14766;51.380;13.762;2023-04-24T09:19:46;2.53;;;0.75;;
27265;SDS011;14766;51.380;13.762;2023-04-24T09:22:13;2.40;;;0.80;;
27265;SDS011;14766;51.380;13.762;2023-04-24T09:24:45;0.60;;;0.60;;
27265;SDS011;14766;51.380;13.762;2023-04-24T09:27:12;1.98;;;0.75;;
27265;SDS011;14766;51.380;13.762;2023-04-24T09:29:52;1.25;;;0.63;;
27265;SDS011;14766;51.380;13.762;2023-04-24T09:32:22;1.52;;;0.70;;
27265;SDS011;14766;51.380;13.762;2023-04-24T09:35:08;3.13;;;0.75;;
27265;SDS011;14766;51.380;13.762;2023-04-24T09:37:38;1.48;;;0.68;;
27265;SDS011;14766;51.380;13.762;2023-04-24T09:42:43;2.45;;;0.77;;
27265;SDS011;14766;51.380;13.762;2023-04-24T09:45:20;2.42;;;0.70;;
27265;SDS011;14766;51.380;13.762;2023-04-24T09:47:51;1.50;;;0.65;;
27265;SDS011;14766;51.380;13.762;2023-04-24T09:50:22;1.85;;;0.85;;
27265;SDS011;14766;51.380;13.762;2023-04-24T09:53:04;2.00;;;0.85;;
27265;SDS011;14766;51.380;13.762;2023-04-24T09:55:38;5.20;;;0.90;;
27265;SDS011;14766;51.380;13.762;2023-04-24T09:58:07;1.10;;;0.65;;
27265;SDS011;14766;51.380;13.762;2023-04-24T10:00:35;3.33;;;0.95;;
27265;SDS011;14766;51.380;13.762;2023-04-24T10:03:03;1.65;;;0.80;;
27265;SDS011;14766;51.380;13.762;2023-04-24T10:05:32;0.82;;;0.70;;
27265;SDS011;14766;51.380;13.762;2023-04-24T10:08:00;1.00;;;0.65;;
27265;SDS011;14766;51.380;13.762;2023-04-24T10:10:30;1.58;;;0.75;;
27265;SDS011;14766;51.380;13.762;2023-04-24T10:12:59;0.70;;;0.50;;
27265;SDS011;14766;51.380;13.762;2023-04-24T10:15:28;1.85;;;0.73;;
27265;SDS011;14766;51.380;13.762;2023-04-24T10:17:57;1.08;;;0.70;;
27265;SDS011;14766;51.380;13.762;2023-04-24T10:20:26;1.38;;;0.70;;
27265;SDS011;14766;51.380;13.762;2023-04-24T10:22:56;1.15;;;0.50;;
27265;SDS011;14766;51.380;13.762;2023-04-24T10:25:25;1.33;;;0.65;;
27265;SDS011;14766;51.380;13.762;2023-04-24T10:27:54;0.90;;;0.70;;
27265;SDS011;14766;51.380;13.762;2023-04-24T10:30:30;2.25;;;0.73;;
27265;SDS011;14766;51.380;13.762;2023-04-24T10:33:04;1.48;;;0.63;;
27265;SDS011;14766;51.380;13.762;2023-04-24T10:35:35;2.42;;;0.80;;
27265;SDS011;14766;51.380;13.762;2023-04-24T10:38:06;0.98;;;0.60;;
27265;SDS011;14766;51.380;13.762;2023-04-24T10:40:37;0.77;;;0.65;;
27265;SDS011;14766;51.380;13.762;2023-04-24T10:43:05;1.60;;;0.63;;
27265;SDS011;14766;51.380;13.762;2023-04-24T10:45:38;1.30;;;0.63;;
27265;SDS011;14766;51.380;13.762;2023-04-24T10:48:09;2.38;;;0.90;;
27265;SDS011;14766;51.380;13.762;2023-04-24T10:53:13;2.10;;;0.77;;
27265;SDS011;14766;51.380;13.762;2023-04-24T10:56:03;2.20;;;0.82;;
27265;SDS011;14766;51.380;13.762;2023-04-24T10:58:50;1.65;;;1.13;;
27265;SDS011;14766;51.380;13.762;2023-04-24T11:01:23;2.38;;;1.00;;
27265;SDS011;14766;51.380;13.762;2023-04-24T11:03:59;4.68;;;2.15;;
27265;SDS011;14766;51.380;13.762;2023-04-24T11:09:01;2.97;;;1.45;;
27265;SDS011;14766;51.380;13.762;2023-04-24T11:11:36;0.95;;;0.70;;
27265;SDS011;14766;51.380;13.762;2023-04-24T11:14:07;0.85;;;0.68;;
27265;SDS011;14766;51.380;13.762;2023-04-24T11:16:53;0.63;;;0.63;;
27265;SDS011;14766;51.380;13.762;2023-04-24T11:19:23;1.55;;;0.65;;
27265;SDS011;14766;51.380;13.762;2023-04-24T11:22:02;1.08;;;0.80;;
27265;SDS011;14766;51.380;13.762;2023-04-24T11:24:49;0.85;;;0.60;;
27265;SDS011;14766;51.380;13.762;2023-04-24T11:27:23;1.73;;;0.70;;
27265;SDS011;14766;51.380;13.762;2023-04-24T11:35:02;2.72;;;1.17;;
27265;SDS011;14766;51.380;13.762;2023-04-24T11:37:33;1.52;;;0.90;;
27265;SDS011;14766;51.380;13.762;2023-04-24T11:40:01;2.22;;;1.38;;
27265;SDS011;14766;51.380;13.762;2023-04-24T11:42:38;0.82;;;0.82;;
27265;SDS011;14766;51.380;13.762;2023-04-24T11:45:10;1.90;;;1.48;;
27265;SDS011;14766;51.380;13.762;2023-04-24T11:47:42;2.55;;;0.90;;
27265;SDS011;14766;51.380;13.762;2023-04-24T11:50:11;2.78;;;1.27;;
27265;SDS011;14766;51.380;13.762;2023-04-24T11:52:41;1.48;;;1.00;;
27265;SDS011;14766;51.380;13.762;2023-04-24T11:57:45;1.35;;;0.80;;
27265;SDS011;14766;51.380;13.762;2023-04-24T12:00:17;1.05;;;0.70;;
27265;SDS011;14766;51.380;13.762;2023-04-24T12:02:47;0.95;;;0.65;;
27265;SDS011;14766;51.380;13.762;2023-04-24T12:05:22;1.17;;;0.70;;
27265;SDS011;14766;51.380;13.762;2023-04-24T12:07:52;3.50;;;1.13;;
27265;SDS011;14766;51.380;13.762;2023-04-24T12:10:23;3.60;;;1.00;;
27265;SDS011;14766;51.380;13.762;2023-04-24T12:12:51;2.78;;;0.90;;
27265;SDS011;14766;51.380;13.762;2023-04-24T12:15:20;1.95;;;1.17;;
27265;SDS011;14766;51.380;13.762;2023-04-24T12:17:47;1.80;;;0.95;;
27265;SDS011;14766;51.380;13.762;2023-04-24T12:20:17;2.05;;;1.17;;
27265;SDS011;14766;51.380;13.762;2023-04-24T12:22:53;1.58;;;0.70;;
27265;SDS011;14766;51.380;13.762;2023-04-24T12:30:48;1.00;;;0.90;;
27265;SDS011;14766;51.380;13.762;2023-04-24T12:33:18;1.73;;;1.00;;
27265;SDS011;14766;51.380;13.762;2023-04-24T12:35:47;3.08;;;1.77;;
27265;SDS011;14766;51.380;13.762;2023-04-24T12:38:15;2.47;;;1.30;;
27265;SDS011;14766;51.380;13.762;2023-04-24T12:40:44;2.33;;;1.42;;
27265;SDS011;14766;51.380;13.762;2023-04-24T12:43:18;0.70;;;0.70;;
27265;SDS011;14766;51.380;13.762;2023-04-24T12:45:49;1.15;;;0.77;;
27265;SDS011;14766;51.380;13.762;2023-04-24T12:48:16;1.90;;;1.10;;
27265;SDS011;14766;51.380;13.762;2023-04-24T12:50:43;2.22;;;1.73;;
27265;SDS011;14766;51.380;13.762;2023-04-24T12:53:13;2.65;;;0.95;;
27265;SDS011;14766;51.380;13.762;2023-04-24T12:55:42;1.65;;;0.70;;
27265;SDS011;14766;51.380;13.762;2023-04-24T12:58:11;1.55;;;0.68;;
27265;SDS011;14766;51.380;13.762;2023-04-24T13:00:38;0.90;;;0.80;;
27265;SDS011;14766;51.380;13.762;2023-04-24T13:03:06;1.20;;;0.80;;
27265;SDS011;14766;51.380;13.762;2023-04-24T13:05:34;2.10;;;0.77;;
27265;SDS011;14766;51.380;13.762;2023-04-24T13:08:01;1.63;;;0.77;;
27265;SDS011;14766;51.380;13.762;2023-04-24T13:10:28;2.17;;;0.80;;
27265;SDS011;14766;51.380;13.762;2023-04-24T13:12:56;1.95;;;0.93;;
27265;SDS011;14766;51.380;13.762;2023-04-24T13:15:24;1.40;;;0.65;;
27265;SDS011;14766;51.380;13.762;2023-04-24T13:17:51;1.20;;;0.80;;
27265;SDS011;14766;51.380;13.762;2023-04-24T13:20:18;0.70;;;0.70;;
27265;SDS011;14766;51.380;13.762;2023-04-24T13:22:45;0.77;;;0.77;;
27265;SDS011;14766;51.380;13.762;2023-04-24T13:25:12;0.80;;;0.70;;
27265;SDS011;14766;51.380;13.762;2023-04-24T13:27:43;1.88;;;0.70;;
27265;SDS011;14766;51.380;13.762;2023-04-24T13:30:13;2.08;;;0.80;;
27265;SDS011;14766;51.380;13.762;2023-04-24T13:32:40;1.15;;;0.70;;
27265;SDS011;14766;51.380;13.762;2023-04-24T13:35:08;1.50;;;0.80;;
27265;SDS011;14766;51.380;13.762;2023-04-24T13:37:35;1.15;;;0.80;;
27265;SDS011;14766;51.380;13.762;2023-04-24T13:40:02;1.80;;;1.00;;
27265;SDS011;14766;51.380;13.762;2023-04-24T13:42:32;1.95;;;1.20;;
27265;SDS011;14766;51.380;13.762;2023-04-24T13:44:59;1.08;;;0.98;;
27265;SDS011;14766;51.380;13.762;2023-04-24T13:47:31;1.40;;;0.90;;
27265;SDS011;14766;51.380;13.762;2023-04-24T13:49:58;2.25;;;0.90;;
27265;SDS011;14766;51.380;13.762;2023-04-24T13:52:25;1.83;;;1.20;;
27265;SDS011;14766;51.380;13.762;2023-04-24T13:54:53;2.75;;;0.80;;
27265;SDS011;14766;51.380;13.762;2023-04-24T13:57:22;1.23;;;0.90;;
27265;SDS011;14766;51.380;13.762;2023-04-24T13:59:49;1.20;;;0.80;;
27265;SDS011;14766;51.380;13.762;2023-04-24T14:02:16;2.58;;;0.80;;
27265;SDS011;14766;51.380;13.762;2023-04-24T14:04:43;1.05;;;0.93;;
27265;SDS011;14766;51.380;13.762;2023-04-24T14:07:11;1.70;;;0.90;;
27265;SDS011;14766;51.380;13.762;2023-04-24T14:09:38;1.45;;;1.00;;
27265;SDS011;14766;51.380;13.762;2023-04-24T14:12:06;3.47;;;1.50;;
27265;SDS011;14766;51.380;13.762;2023-04-24T14:14:33;1.13;;;0.93;;
27265;SDS011;14766;51.380;13.762;2023-04-24T14:17:01;1.25;;;0.63;;
27265;SDS011;14766;51.380;13.762;2023-04-24T14:19:28;0.90;;;0.65;;
27265;SDS011;14766;51.380;13.762;2023-04-24T14:21:55;1.23;;;0.80;;
27265;SDS011;14766;51.380;13.762;2023-04-24T14:24:24;2.45;;;0.90;;
27265;SDS011;14766;51.380;13.762;2023-04-24T14:26:51;1.23;;;0.90;;
27265;SDS011;14766;51.380;13.762;2023-04-24T14:29:18;1.00;;;0.80;;
27265;SDS011;14766;51.380;13.762;2023-04-24T14:31:46;1.08;;;0.90;;
27265;SDS011;14766;51.380;13.762;2023-04-24T14:34:14;3.38;;;0.93;;
27265;SDS011;14766;51.380;13.762;2023-04-24T14:36:43;2.13;;;0.98;;
27265;SDS011;14766;51.380;13.762;2023-04-24T14:39:10;0.80;;;0.80;;
27265;SDS011;14766;51.380;13.762;2023-04-24T14:41:37;1.13;;;0.80;;
27265;SDS011;14766;51.380;13.762;2023-04-24T14:44:05;0.90;;;0.80;;
27265;SDS011;14766;51.380;13.762;2023-04-24T14:46:32;1.30;;;1.00;;
27265;SDS011;14766;51.380;13.762;2023-04-24T14:49:01;1.63;;;0.80;;
27265;SDS011;14766;51.380;13.762;2023-04-24T14:51:29;1.83;;;1.25;;
27265;SDS011;14766;51.380;13.762;2023-04-24T14:53:57;1.77;;;0.90;;
27265;SDS011;14766;51.380;13.762;2023-04-24T14:56:24;1.83;;;1.30;;
27265;SDS011;14766;51.380;13.762;2023-04-24T14:58:52;1.15;;;0.90;;
27265;SDS011;14766;51.380;13.762;2023-04-24T15:01:19;2.00;;;1.13;;
27265;SDS011;14766;51.380;13.762;2023-04-24T15:03:46;2.45;;;1.55;;
27265;SDS011;14766;51.380;13.762;2023-04-24T15:06:14;2.28;;;1.27;;
27265;SDS011;14766;51.380;13.762;2023-04-24T15:08:43;3.47;;;2.03;;